sensor_id;sensor_type;location;lat;lon;timestamp;P1;durP1;ratioP1;P2;durP2;ratioP2
56927;SDS011;60850;52.502;13.426;2024-03-23T00:53:26;12.50;;;2.35;;
56927;SDS011;60850;52.502;13.426;2024-03-23T00:55:53;10.70;;;3.25;;
56927;SDS011;60850;52.502;13.426;2024-03-23T00:58:22;8.38;;;2.35;;
56927;SDS011;60850;52.502;13.426;2024-03-23T01:00:48;14.88;;;2.60;;
56927;SDS011;60850;52.502;13.426;2024-03-23T01:03:15;12.15;;;2.20;;
56927;SDS011;60850;52.502;13.426;2024-03-23T01:05:41;10.98;;;2.33;;
56927;SDS011;60850;52.502;13.426;2024-03-23T01:08:08;12.57;;;2.05;;
56927;SDS011;60850;52.502;13.426;2024-03-23T01:10:36;12.52;;;2.00;;
56927;SDS011;60850;52.502;13.426;2024-03-23T01:13:03;12.00;;;2.05;;
56927;SDS011;60850;52.502;13.426;2024-03-23T01:15:30;14.95;;;1.90;;
56927;SDS011;60850;52.502;13.426;2024-03-23T01:17:57;9.43;;;2.22;;
56927;SDS011;60850;52.502;13.426;2024-03-23T01:20:23;15.73;;;2.20;;
56927;SDS011;60850;52.502;13.426;2024-03-23T01:22:50;12.43;;;2.60;;
56927;SDS011;60850;52.502;13.426;2024-03-23T01:25:16;12.63;;;2.35;;
56927;SDS011;60850;52.502;13.426;2024-03-23T01:27:44;15.90;;;2.92;;
56927;SDS011;60850;52.502;13.426;2024-03-23T01:30:10;13.50;;;2.13;;
56927;SDS011;60850;52.502;13.426;2024-03-23T01:32:39;11.13;;;2.55;;
56927;SDS011;60850;52.502;13.426;2024-03-23T01:35:05;17.05;;;2.95;;
56927;SDS011;60850;52.502;13.426;2024-03-23T01:37:32;10.50;;;2.35;;
56927;SDS011;60850;52.502;13.426;2024-03-23T01:39:58;13.00;;;2.40;;
56927;SDS011;60850;52.502;13.426;2024-03-23T01:42:25;14.93;;;2.47;;
56927;SDS011;60850;52.502;13.426;2024-03-23T01:44:52;13.15;;;2.72;;
56927;SDS011;60850;52.502;13.426;2024-03-23T01:47:19;10.77;;;2.75;;
56927;SDS011;60850;52.502;13.426;2024-03-23T01:49:45;16.27;;;2.75;;
56927;SDS011;60850;52.502;13.426;2024-03-23T01:52:13;14.02;;;3.08;;
56927;SDS011;60850;52.502;13.426;2024-03-23T01:54:39;11.50;;;2.92;;
56927;SDS011;60850;52.502;13.426;2024-03-23T01:57:07;19.08;;;3.17;;
56927;SDS011;60850;52.502;13.426;2024-03-23T01:59:33;13.57;;;3.65;;
56927;SDS011;60850;52.502;13.426;2024-03-23T02:02:02;11.57;;;3.08;;
56927;SDS011;60850;52.502;13.426;2024-03-23T02:04:28;17.63;;;3.00;;
56927;SDS011;60850;52.502;13.426;2024-03-23T02:06:55;14.05;;;2.60;;
56927;SDS011;60850;52.502;13.426;2024-03-23T02:09:21;9.95;;;2.60;;
56927;SDS011;60850;52.502;13.426;2024-03-23T02:11:48;13.77;;;2.35;;
56927;SDS011;60850;52.502;13.426;2024-03-23T02:14:14;15.15;;;3.20;;
56927;SDS011;60850;52.502;13.426;2024-03-23T02:16:42;16.55;;;2.42;;
56927;SDS011;60850;52.502;13.426;2024-03-23T02:19:10;19.75;;;3.30;;
56927;SDS011;60850;52.502;13.426;2024-03-23T02:21:37;15.93;;;2.70;;
56927;SDS011;60850;52.502;13.426;2024-03-23T02:24:04;14.30;;;3.30;;
56927;SDS011;60850;52.502;13.426;2024-03-23T02:26:32;18.38;;;3.20;;
56927;SDS011;60850;52.502;13.426;2024-03-23T02:28:58;14.15;;;2.83;;
56927;SDS011;60850;52.502;13.426;2024-03-23T02:31:25;17.65;;;2.92;;
56927;SDS011;60850;52.502;13.426;2024-03-23T02:33:51;15.82;;;2.72;;
56927;SDS011;60850;52.502;13.426;2024-03-23T02:36:18;16.65;;;3.47;;
56927;SDS011;60850;52.502;13.426;2024-03-23T02:38:46;15.73;;;3.10;;
56927;SDS011;60850;52.502;13.426;2024-03-23T02:41:15;11.27;;;2.75;;
56927;SDS011;60850;52.502;13.426;2024-03-23T02:43:48;16.95;;;2.95;;
56927;SDS011;60850;52.502;13.426;2024-03-23T02:46:15;23.35;;;3.63;;
56927;SDS011;60850;52.502;13.426;2024-03-23T02:48:41;17.80;;;2.88;;
56927;SDS011;60850;52.502;13.426;2024-03-23T02:51:08;13.05;;;3.40;;
56927;SDS011;60850;52.502;13.426;2024-03-23T02:53:34;9.00;;;2.33;;
56927;SDS011;60850;52.502;13.426;2024-03-23T02:56:03;14.60;;;3.70;;
56927;SDS011;60850;52.502;13.426;2024-03-23T02:58:30;11.57;;;2.95;;
56927;SDS011;60850;52.502;13.426;2024-03-23T03:00:58;16.05;;;2.80;;
56927;SDS011;60850;52.502;13.426;2024-03-23T03:03:24;18.77;;;3.42;;
56927;SDS011;60850;52.502;13.426;2024-03-23T03:05:54;17.20;;;3.63;;
56927;SDS011;60850;52.502;13.426;2024-03-23T03:08:20;16.27;;;3.05;;
56927;SDS011;60850;52.502;13.426;2024-03-23T03:10:48;13.43;;;3.17;;
56927;SDS011;60850;52.502;13.426;2024-03-23T03:13:14;15.48;;;3.88;;
56927;SDS011;60850;52.502;13.426;2024-03-23T03:15:43;13.15;;;3.25;;
56927;SDS011;60850;52.502;13.426;2024-03-23T03:18:09;13.05;;;3.33;;
56927;SDS011;60850;52.502;13.426;2024-03-23T03:20:37;21.67;;;3.10;;
56927;SDS011;60850;52.502;13.426;2024-03-23T03:23:04;19.27;;;3.20;;
56927;SDS011;60850;52.502;13.426;2024-03-23T03:25:32;14.48;;;3.33;;
56927;SDS011;60850;52.502;13.426;2024-03-23T03:27:57;19.05;;;3.65;;
56927;SDS011;60850;52.502;13.426;2024-03-23T03:30:25;16.65;;;4.40;;
56927;SDS011;60850;52.502;13.426;2024-03-23T03:32:53;13.75;;;3.65;;
56927;SDS011;60850;52.502;13.426;2024-03-23T03:35:20;20.15;;;3.97;;
56927;SDS011;60850;52.502;13.426;2024-03-23T03:37:46;12.48;;;3.38;;
56927;SDS011;60850;52.502;13.426;2024-03-23T03:40:13;13.45;;;2.80;;
56927;SDS011;60850;52.502;13.426;2024-03-23T03:42:40;17.25;;;3.10;;
56927;SDS011;60850;52.502;13.426;2024-03-23T03:45:07;10.98;;;2.70;;
56927;SDS011;60850;52.502;13.426;2024-03-23T03:47:33;14.98;;;3.35;;
56927;SDS011;60850;52.502;13.426;2024-03-23T03:50:02;13.60;;;2.90;;
56927;SDS011;60850;52.502;13.426;2024-03-23T03:52:28;9.63;;;2.40;;
56927;SDS011;60850;52.502;13.426;2024-03-23T03:55:00;7.25;;;2.30;;
56927;SDS011;60850;52.502;13.426;2024-03-23T03:57:27;17.27;;;3.20;;
56927;SDS011;60850;52.502;13.426;2024-03-23T03:59:55;11.60;;;2.67;;
56927;SDS011;60850;52.502;13.426;2024-03-23T04:02:20;11.32;;;2.65;;
56927;SDS011;60850;52.502;13.426;2024-03-23T04:04:49;8.88;;;2.95;;
56927;SDS011;60850;52.502;13.426;2024-03-23T04:07:16;16.08;;;3.78;;
56927;SDS011;60850;52.502;13.426;2024-03-23T04:09:44;12.23;;;2.53;;
56927;SDS011;60850;52.502;13.426;2024-03-23T04:12:09;10.73;;;2.60;;
56927;SDS011;60850;52.502;13.426;2024-03-23T04:14:37;10.77;;;2.30;;
56927;SDS011;60850;52.502;13.426;2024-03-23T04:17:03;11.80;;;2.47;;
56927;SDS011;60850;52.502;13.426;2024-03-23T04:19:30;6.53;;;1.83;;
56927;SDS011;60850;52.502;13.426;2024-03-23T04:21:56;6.63;;;1.40;;
56927;SDS011;60850;52.502;13.426;2024-03-23T04:24:25;15.05;;;2.42;;
56927;SDS011;60850;52.502;13.426;2024-03-23T04:26:52;7.78;;;1.70;;
56927;SDS011;60850;52.502;13.426;2024-03-23T04:29:19;7.57;;;2.05;;
56927;SDS011;60850;52.502;13.426;2024-03-23T04:31:46;5.53;;;1.55;;
56927;SDS011;60850;52.502;13.426;2024-03-23T04:34:12;12.73;;;1.88;;
56927;SDS011;60850;52.502;13.426;2024-03-23T04:36:39;7.88;;;2.03;;
56927;SDS011;60850;52.502;13.426;2024-03-23T04:39:06;9.55;;;2.00;;
56927;SDS011;60850;52.502;13.426;2024-03-23T04:41:35;5.65;;;1.58;;
56927;SDS011;60850;52.502;13.426;2024-03-23T04:44:02;9.00;;;1.77;;
56927;SDS011;60850;52.502;13.426;2024-03-23T04:46:29;5.43;;;1.33;;
56927;SDS011;60850;52.502;13.426;2024-03-23T04:48:56;7.72;;;1.35;;
56927;SDS011;60850;52.502;13.426;2024-03-23T04:51:23;4.47;;;1.67;;
56927;SDS011;60850;52.502;13.426;2024-03-23T04:53:50;10.88;;;1.60;;
56927;SDS011;60850;52.502;13.426;2024-03-23T04:56:18;3.30;;;1.25;;
56927;SDS011;60850;52.502;13.426;2024-03-23T04:58:47;3.63;;;0.95;;
56927;SDS011;60850;52.502;13.426;2024-03-23T05:01:13;4.43;;;0.93;;
56927;SDS011;60850;52.502;13.426;2024-03-23T05:03:40;3.17;;;0.95;;
56927;SDS011;60850;52.502;13.426;2024-03-23T05:06:06;5.32;;;1.00;;
56927;SDS011;60850;52.502;13.426;2024-03-23T05:08:33;6.35;;;1.00;;
56927;SDS011;60850;52.502;13.426;2024-03-23T05:10:59;5.80;;;1.13;;
56927;SDS011;60850;52.502;13.426;2024-03-23T05:13:26;8.60;;;1.40;;
56927;SDS011;60850;52.502;13.426;2024-03-23T05:15:55;7.82;;;1.35;;
56927;SDS011;60850;52.502;13.426;2024-03-23T05:18:21;8.10;;;1.73;;
56927;SDS011;60850;52.502;13.426;2024-03-23T05:20:48;5.13;;;1.40;;
56927;SDS011;60850;52.502;13.426;2024-03-23T05:23:14;2.78;;;0.65;;
56927;SDS011;60850;52.502;13.426;2024-03-23T05:25:41;6.00;;;1.50;;
56927;SDS011;60850;52.502;13.426;2024-03-23T05:28:07;5.85;;;1.20;;
56927;SDS011;60850;52.502;13.426;2024-03-23T05:30:34;2.70;;;1.25;;
56927;SDS011;60850;52.502;13.426;2024-03-23T05:33:02;8.13;;;1.42;;
56927;SDS011;60850;52.502;13.426;2024-03-23T05:35:29;4.43;;;1.20;;
56927;SDS011;60850;52.502;13.426;2024-03-23T05:37:55;9.90;;;1.80;;
56927;SDS011;60850;52.502;13.426;2024-03-23T05:40:23;6.95;;;1.23;;
56927;SDS011;60850;52.502;13.426;2024-03-23T05:42:50;7.13;;;1.45;;
56927;SDS011;60850;52.502;13.426;2024-03-23T05:45:19;5.22;;;1.38;;
56927;SDS011;60850;52.502;13.426;2024-03-23T05:47:45;9.20;;;1.15;;
56927;SDS011;60850;52.502;13.426;2024-03-23T05:50:13;6.78;;;1.50;;
56927;SDS011;60850;52.502;13.426;2024-03-23T05:52:40;9.77;;;1.50;;
56927;SDS011;60850;52.502;13.426;2024-03-23T05:55:09;5.22;;;1.45;;
56927;SDS011;60850;52.502;13.426;2024-03-23T05:57:35;6.60;;;1.85;;
56927;SDS011;60850;52.502;13.426;2024-03-23T06:00:02;10.13;;;2.00;;
56927;SDS011;60850;52.502;13.426;2024-03-23T06:02:29;10.10;;;2.30;;
56927;SDS011;60850;52.502;13.426;2024-03-23T06:04:56;5.65;;;1.80;;
56927;SDS011;60850;52.502;13.426;2024-03-23T06:07:23;6.57;;;2.33;;
56927;SDS011;60850;52.502;13.426;2024-03-23T06:09:50;7.45;;;1.98;;
56927;SDS011;60850;52.502;13.426;2024-03-23T06:12:16;8.30;;;2.30;;
56927;SDS011;60850;52.502;13.426;2024-03-23T06:14:43;5.68;;;2.20;;
56927;SDS011;60850;52.502;13.426;2024-03-23T06:17:09;7.85;;;2.78;;
56927;SDS011;60850;52.502;13.426;2024-03-23T06:19:36;11.60;;;2.58;;
56927;SDS011;60850;52.502;13.426;2024-03-23T06:22:03;10.07;;;2.92;;
56927;SDS011;60850;52.502;13.426;2024-03-23T06:24:33;8.73;;;1.95;;
56927;SDS011;60850;52.502;13.426;2024-03-23T06:26:59;10.40;;;2.97;;
56927;SDS011;60850;52.502;13.426;2024-03-23T06:29:26;12.30;;;1.85;;
56927;SDS011;60850;52.502;13.426;2024-03-23T06:31:53;9.80;;;2.60;;
56927;SDS011;60850;52.502;13.426;2024-03-23T06:34:20;7.20;;;1.58;;
56927;SDS011;60850;52.502;13.426;2024-03-23T06:36:47;10.30;;;1.90;;
56927;SDS011;60850;52.502;13.426;2024-03-23T06:39:14;9.50;;;2.03;;
56927;SDS011;60850;52.502;13.426;2024-03-23T06:41:42;9.90;;;1.95;;
56927;SDS011;60850;52.502;13.426;2024-03-23T06:44:09;10.18;;;2.13;;
56927;SDS011;60850;52.502;13.426;2024-03-23T06:46:36;6.07;;;1.90;;
56927;SDS011;60850;52.502;13.426;2024-03-23T06:49:03;8.65;;;1.65;;
56927;SDS011;60850;52.502;13.426;2024-03-23T06:51:29;5.30;;;1.63;;
56927;SDS011;60850;52.502;13.426;2024-03-23T06:53:56;8.02;;;1.77;;
56927;SDS011;60850;52.502;13.426;2024-03-23T06:56:22;8.77;;;1.40;;
56927;SDS011;60850;52.502;13.426;2024-03-23T06:58:50;6.03;;;1.55;;
56927;SDS011;60850;52.502;13.426;2024-03-23T07:01:16;5.60;;;1.65;;
56927;SDS011;60850;52.502;13.426;2024-03-23T07:03:43;6.93;;;2.47;;
56927;SDS011;60850;52.502;13.426;2024-03-23T07:06:09;8.50;;;1.60;;
56927;SDS011;60850;52.502;13.426;2024-03-23T07:08:36;5.00;;;1.67;;
56927;SDS011;60850;52.502;13.426;2024-03-23T07:11:03;4.70;;;1.20;;
56927;SDS011;60850;52.502;13.426;2024-03-23T07:13:30;9.68;;;1.75;;
56927;SDS011;60850;52.502;13.426;2024-03-23T07:15:58;7.32;;;1.58;;
56927;SDS011;60850;52.502;13.426;2024-03-23T07:18:25;5.90;;;1.80;;
56927;SDS011;60850;52.502;13.426;2024-03-23T07:20:52;6.93;;;1.55;;
56927;SDS011;60850;52.502;13.426;2024-03-23T07:23:19;5.10;;;1.35;;
56927;SDS011;60850;52.502;13.426;2024-03-23T07:25:55;8.40;;;1.77;;
56927;SDS011;60850;52.502;13.426;2024-03-23T07:28:22;9.63;;;2.40;;
56927;SDS011;60850;52.502;13.426;2024-03-23T07:30:59;5.03;;;1.90;;
56927;SDS011;60850;52.502;13.426;2024-03-23T07:33:29;9.88;;;1.75;;
56927;SDS011;60850;52.502;13.426;2024-03-23T07:35:56;6.65;;;2.17;;
56927;SDS011;60850;52.502;13.426;2024-03-23T07:38:23;6.85;;;2.42;;
56927;SDS011;60850;52.502;13.426;2024-03-23T07:40:50;6.40;;;2.13;;
56927;SDS011;60850;52.502;13.426;2024-03-23T07:43:20;5.22;;;1.98;;
56927;SDS011;60850;52.502;13.426;2024-03-23T07:45:51;6.68;;;2.08;;
56927;SDS011;60850;52.502;13.426;2024-03-23T07:48:20;8.32;;;2.42;;
56927;SDS011;60850;52.502;13.426;2024-03-23T07:50:59;9.07;;;1.67;;
56927;SDS011;60850;52.502;13.426;2024-03-23T07:53:25;6.30;;;2.40;;
56927;SDS011;60850;52.502;13.426;2024-03-23T07:55:56;7.85;;;2.45;;
56927;SDS011;60850;52.502;13.426;2024-03-23T07:58:23;6.15;;;1.65;;
56927;SDS011;60850;52.502;13.426;2024-03-23T08:00:50;9.52;;;1.98;;
56927;SDS011;60850;52.502;13.426;2024-03-23T08:03:16;5.70;;;1.77;;
56927;SDS011;60850;52.502;13.426;2024-03-23T08:05:45;9.38;;;1.70;;
56927;SDS011;60850;52.502;13.426;2024-03-23T08:08:12;8.63;;;2.45;;
56927;SDS011;60850;52.502;13.426;2024-03-23T08:10:46;5.75;;;1.45;;
56927;SDS011;60850;52.502;13.426;2024-03-23T08:13:14;6.85;;;2.22;;
56927;SDS011;60850;52.502;13.426;2024-03-23T08:15:40;7.10;;;1.67;;
56927;SDS011;60850;52.502;13.426;2024-03-23T08:18:07;8.38;;;1.60;;
56927;SDS011;60850;52.502;13.426;2024-03-23T08:20:33;6.40;;;2.00;;
56927;SDS011;60850;52.502;13.426;2024-03-23T08:23:01;4.28;;;1.50;;
56927;SDS011;60850;52.502;13.426;2024-03-23T08:25:30;4.40;;;1.10;;
56927;SDS011;60850;52.502;13.426;2024-03-23T08:27:57;5.28;;;1.33;;
56927;SDS011;60850;52.502;13.426;2024-03-23T08:30:24;4.47;;;1.33;;
56927;SDS011;60850;52.502;13.426;2024-03-23T08:32:51;4.30;;;1.25;;
56927;SDS011;60850;52.502;13.426;2024-03-23T08:35:17;4.95;;;1.35;;
56927;SDS011;60850;52.502;13.426;2024-03-23T08:37:44;4.80;;;1.10;;
56927;SDS011;60850;52.502;13.426;2024-03-23T08:40:12;7.15;;;1.70;;
56927;SDS011;60850;52.502;13.426;2024-03-23T08:42:39;13.20;;;4.10;;
56927;SDS011;60850;52.502;13.426;2024-03-23T08:45:05;6.40;;;1.35;;
56927;SDS011;60850;52.502;13.426;2024-03-23T08:47:34;4.15;;;1.60;;
56927;SDS011;60850;52.502;13.426;2024-03-23T08:50:00;3.88;;;1.33;;
56927;SDS011;60850;52.502;13.426;2024-03-23T08:52:27;4.43;;;1.40;;
56927;SDS011;60850;52.502;13.426;2024-03-23T08:54:55;6.65;;;1.50;;
56927;SDS011;60850;52.502;13.426;2024-03-23T08:57:23;6.93;;;1.42;;
56927;SDS011;60850;52.502;13.426;2024-03-23T08:59:49;5.50;;;1.58;;
56927;SDS011;60850;52.502;13.426;2024-03-23T09:02:16;7.85;;;2.25;;
56927;SDS011;60850;52.502;13.426;2024-03-23T09:04:43;7.10;;;1.58;;
56927;SDS011;60850;52.502;13.426;2024-03-23T09:07:11;5.13;;;1.85;;
56927;SDS011;60850;52.502;13.426;2024-03-23T09:09:38;5.03;;;1.05;;
56927;SDS011;60850;52.502;13.426;2024-03-23T09:12:05;3.75;;;1.08;;
56927;SDS011;60850;52.502;13.426;2024-03-23T09:14:33;9.23;;;1.75;;
56927;SDS011;60850;52.502;13.426;2024-03-23T09:17:00;5.50;;;1.20;;
56927;SDS011;60850;52.502;13.426;2024-03-23T09:19:27;3.40;;;0.98;;
56927;SDS011;60850;52.502;13.426;2024-03-23T09:21:54;4.72;;;0.93;;
56927;SDS011;60850;52.502;13.426;2024-03-23T09:24:22;5.50;;;1.15;;
56927;SDS011;60850;52.502;13.426;2024-03-23T09:26:48;3.60;;;1.00;;
56927;SDS011;60850;52.502;13.426;2024-03-23T09:29:15;4.00;;;1.23;;
56927;SDS011;60850;52.502;13.426;2024-03-23T09:31:42;6.18;;;1.40;;
56927;SDS011;60850;52.502;13.426;2024-03-23T09:34:10;5.43;;;0.95;;
56927;SDS011;60850;52.502;13.426;2024-03-23T09:36:35;3.42;;;1.48;;
56927;SDS011;60850;52.502;13.426;2024-03-23T09:39:03;4.78;;;1.55;;
56927;SDS011;60850;52.502;13.426;2024-03-23T09:41:30;5.15;;;0.98;;
56927;SDS011;60850;52.502;13.426;2024-03-23T09:43:58;4.10;;;1.10;;
56927;SDS011;60850;52.502;13.426;2024-03-23T09:46:25;7.22;;;1.00;;
56927;SDS011;60850;52.502;13.426;2024-03-23T09:48:55;3.95;;;1.00;;
56927;SDS011;60850;52.502;13.426;2024-03-23T09:51:23;5.72;;;1.00;;
56927;SDS011;60850;52.502;13.426;2024-03-23T09:53:50;5.28;;;1.08;;
56927;SDS011;60850;52.502;13.426;2024-03-23T09:56:17;2.83;;;0.98;;
56927;SDS011;60850;52.502;13.426;2024-03-23T09:58:44;4.13;;;1.00;;
56927;SDS011;60850;52.502;13.426;2024-03-23T10:01:10;7.55;;;1.10;;
56927;SDS011;60850;52.502;13.426;2024-03-23T10:03:44;4.38;;;0.95;;
56927;SDS011;60850;52.502;13.426;2024-03-23T10:06:12;3.63;;;1.37;;
56927;SDS011;60850;52.502;13.426;2024-03-23T10:08:39;5.47;;;1.25;;
56927;SDS011;60850;52.502;13.426;2024-03-23T10:11:14;6.25;;;2.05;;
56927;SDS011;60850;52.502;13.426;2024-03-23T10:13:43;3.90;;;1.30;;
56927;SDS011;60850;52.502;13.426;2024-03-23T10:16:09;5.50;;;1.50;;
56927;SDS011;60850;52.502;13.426;2024-03-23T10:18:37;4.78;;;0.90;;
56927;SDS011;60850;52.502;13.426;2024-03-23T10:21:06;4.07;;;1.02;;
56927;SDS011;60850;52.502;13.426;2024-03-23T10:23:38;7.90;;;1.57;;
56927;SDS011;60850;52.502;13.426;2024-03-23T10:26:18;4.22;;;1.10;;
56927;SDS011;60850;52.502;13.426;2024-03-23T10:28:53;4.10;;;1.13;;
56927;SDS011;60850;52.502;13.426;2024-03-23T10:31:22;5.82;;;1.27;;
56927;SDS011;60850;52.502;13.426;2024-03-23T10:33:49;7.57;;;1.20;;
56927;SDS011;60850;52.502;13.426;2024-03-23T10:36:15;7.47;;;1.33;;
56927;SDS011;60850;52.502;13.426;2024-03-23T10:38:45;6.97;;;1.05;;
56927;SDS011;60850;52.502;13.426;2024-03-23T10:41:12;6.95;;;1.52;;
56927;SDS011;60850;52.502;13.426;2024-03-23T10:43:39;4.10;;;1.25;;
56927;SDS011;60850;52.502;13.426;2024-03-23T10:46:05;2.67;;;0.95;;
56927;SDS011;60850;52.502;13.426;2024-03-23T10:48:33;4.78;;;1.30;;
56927;SDS011;60850;52.502;13.426;2024-03-23T10:50:59;8.40;;;2.08;;
56927;SDS011;60850;52.502;13.426;2024-03-23T10:53:27;8.38;;;2.25;;
56927;SDS011;60850;52.502;13.426;2024-03-23T10:55:55;6.70;;;1.63;;
56927;SDS011;60850;52.502;13.426;2024-03-23T10:58:24;7.45;;;1.42;;
56927;SDS011;60850;52.502;13.426;2024-03-23T11:00:53;8.82;;;2.33;;
56927;SDS011;60850;52.502;13.426;2024-03-23T11:03:30;7.38;;;1.80;;
56927;SDS011;60850;52.502;13.426;2024-03-23T11:05:57;5.75;;;1.80;;
56927;SDS011;60850;52.502;13.426;2024-03-23T11:08:31;7.00;;;1.67;;
56927;SDS011;60850;52.502;13.426;2024-03-23T11:13:43;12.07;;;1.55;;
56927;SDS011;60850;52.502;13.426;2024-03-23T11:16:13;7.25;;;1.42;;
56927;SDS011;60850;52.502;13.426;2024-03-23T11:18:41;7.45;;;2.60;;
56927;SDS011;60850;52.502;13.426;2024-03-23T11:21:09;9.43;;;2.72;;
56927;SDS011;60850;52.502;13.426;2024-03-23T11:23:36;8.38;;;3.42;;
56927;SDS011;60850;52.502;13.426;2024-03-23T11:26:02;12.82;;;2.95;;
56927;SDS011;60850;52.502;13.426;2024-03-23T11:28:35;8.02;;;2.10;;
56927;SDS011;60850;52.502;13.426;2024-03-23T11:31:01;7.88;;;2.42;;
56927;SDS011;60850;52.502;13.426;2024-03-23T11:33:28;10.90;;;2.42;;
56927;SDS011;60850;52.502;13.426;2024-03-23T11:35:54;7.78;;;2.22;;
56927;SDS011;60850;52.502;13.426;2024-03-23T11:38:22;7.57;;;2.20;;
56927;SDS011;60850;52.502;13.426;2024-03-23T11:40:48;8.52;;;2.53;;
56927;SDS011;60850;52.502;13.426;2024-03-23T11:43:16;4.13;;;1.58;;
56927;SDS011;60850;52.502;13.426;2024-03-23T11:45:45;10.00;;;2.22;;
56927;SDS011;60850;52.502;13.426;2024-03-23T11:48:14;4.95;;;2.38;;
56927;SDS011;60850;52.502;13.426;2024-03-23T11:50:43;7.03;;;2.97;;
56927;SDS011;60850;52.502;13.426;2024-03-23T11:53:12;9.98;;;3.17;;
56927;SDS011;60850;52.502;13.426;2024-03-23T11:55:40;7.63;;;2.60;;
56927;SDS011;60850;52.502;13.426;2024-03-23T11:58:08;10.60;;;2.50;;
56927;SDS011;60850;52.502;13.426;2024-03-23T12:00:35;5.40;;;2.10;;
56927;SDS011;60850;52.502;13.426;2024-03-23T12:03:04;6.60;;;2.25;;
56927;SDS011;60850;52.502;13.426;2024-03-23T12:05:31;8.00;;;2.20;;
56927;SDS011;60850;52.502;13.426;2024-03-23T12:10:44;3.85;;;1.95;;
56927;SDS011;60850;52.502;13.426;2024-03-23T12:13:14;6.82;;;2.15;;
56927;SDS011;60850;52.502;13.426;2024-03-23T12:15:42;12.38;;;2.55;;
56927;SDS011;60850;52.502;13.426;2024-03-23T12:18:11;8.00;;;2.53;;
56927;SDS011;60850;52.502;13.426;2024-03-23T12:20:38;7.32;;;2.08;;
56927;SDS011;60850;52.502;13.426;2024-03-23T12:23:06;7.57;;;2.53;;
56927;SDS011;60850;52.502;13.426;2024-03-23T12:25:34;5.28;;;1.80;;
56927;SDS011;60850;52.502;13.426;2024-03-23T12:28:01;7.97;;;2.15;;
56927;SDS011;60850;52.502;13.426;2024-03-23T12:30:28;7.40;;;1.95;;
56927;SDS011;60850;52.502;13.426;2024-03-23T12:32:55;7.18;;;1.95;;
56927;SDS011;60850;52.502;13.426;2024-03-23T12:35:23;8.30;;;2.47;;
56927;SDS011;60850;52.502;13.426;2024-03-23T12:37:50;8.85;;;2.60;;
56927;SDS011;60850;52.502;13.426;2024-03-23T12:40:16;8.40;;;2.80;;
56927;SDS011;60850;52.502;13.426;2024-03-23T12:42:43;9.70;;;2.55;;
56927;SDS011;60850;52.502;13.426;2024-03-23T12:45:09;7.10;;;2.53;;
56927;SDS011;60850;52.502;13.426;2024-03-23T12:47:36;7.07;;;2.13;;
56927;SDS011;60850;52.502;13.426;2024-03-23T12:50:02;7.70;;;2.28;;
56927;SDS011;60850;52.502;13.426;2024-03-23T12:52:32;7.05;;;2.30;;
56927;SDS011;60850;52.502;13.426;2024-03-23T12:54:58;8.73;;;1.77;;
56927;SDS011;60850;52.502;13.426;2024-03-23T12:57:26;5.88;;;1.65;;
56927;SDS011;60850;52.502;13.426;2024-03-23T12:59:52;8.07;;;1.92;;
56927;SDS011;60850;52.502;13.426;2024-03-23T13:02:19;6.15;;;1.70;;
56927;SDS011;60850;52.502;13.426;2024-03-23T13:04:46;8.70;;;2.40;;
56927;SDS011;60850;52.502;13.426;2024-03-23T13:07:16;8.38;;;3.97;;
56927;SDS011;60850;52.502;13.426;2024-03-23T13:09:43;5.45;;;1.65;;
56927;SDS011;60850;52.502;13.426;2024-03-23T13:12:11;5.57;;;1.60;;
56927;SDS011;60850;52.502;13.426;2024-03-23T13:14:38;5.55;;;1.55;;
56927;SDS011;60850;52.502;13.426;2024-03-23T13:17:06;5.90;;;1.08;;
56927;SDS011;60850;52.502;13.426;2024-03-23T13:19:33;8.82;;;2.20;;
56927;SDS011;60850;52.502;13.426;2024-03-23T13:22:00;7.03;;;1.73;;
56927;SDS011;60850;52.502;13.426;2024-03-23T13:24:27;6.63;;;2.20;;
56927;SDS011;60850;52.502;13.426;2024-03-23T13:26:56;3.97;;;2.00;;
56927;SDS011;60850;52.502;13.426;2024-03-23T13:29:23;8.20;;;2.40;;
56927;SDS011;60850;52.502;13.426;2024-03-23T13:31:51;10.18;;;2.20;;
56927;SDS011;60850;52.502;13.426;2024-03-23T13:34:17;4.20;;;1.85;;
56927;SDS011;60850;52.502;13.426;2024-03-23T13:36:45;3.90;;;1.63;;
56927;SDS011;60850;52.502;13.426;2024-03-23T13:39:12;5.75;;;1.73;;
56927;SDS011;60850;52.502;13.426;2024-03-23T13:41:41;7.70;;;2.28;;
56927;SDS011;60850;52.502;13.426;2024-03-23T13:44:09;7.75;;;2.70;;
56927;SDS011;60850;52.502;13.426;2024-03-23T13:46:37;7.90;;;2.72;;
56927;SDS011;60850;52.502;13.426;2024-03-23T13:49:04;17.30;;;3.72;;
56927;SDS011;60850;52.502;13.426;2024-03-23T13:51:31;8.93;;;2.67;;
56927;SDS011;60850;52.502;13.426;2024-03-23T13:53:58;9.25;;;2.28;;
56927;SDS011;60850;52.502;13.426;2024-03-23T13:56:27;12.55;;;3.05;;
56927;SDS011;60850;52.502;13.426;2024-03-23T13:58:54;9.20;;;2.67;;
56927;SDS011;60850;52.502;13.426;2024-03-23T14:01:23;6.22;;;3.03;;
56927;SDS011;60850;52.502;13.426;2024-03-23T14:03:49;9.35;;;2.92;;
56927;SDS011;60850;52.502;13.426;2024-03-23T14:06:16;8.25;;;3.28;;
56927;SDS011;60850;52.502;13.426;2024-03-23T14:08:42;9.35;;;4.03;;
56927;SDS011;60850;52.502;13.426;2024-03-23T14:11:09;8.13;;;3.10;;
56927;SDS011;60850;52.502;13.426;2024-03-23T14:13:36;8.65;;;2.20;;
56927;SDS011;60850;52.502;13.426;2024-03-23T14:16:04;10.25;;;2.40;;
56927;SDS011;60850;52.502;13.426;2024-03-23T14:18:31;8.15;;;2.53;;
56927;SDS011;60850;52.502;13.426;2024-03-23T14:20:59;7.97;;;2.28;;
56927;SDS011;60850;52.502;13.426;2024-03-23T14:23:25;10.45;;;2.70;;
56927;SDS011;60850;52.502;13.426;2024-03-23T14:25:54;10.07;;;2.33;;
56927;SDS011;60850;52.502;13.426;2024-03-23T14:28:21;9.48;;;2.65;;
56927;SDS011;60850;52.502;13.426;2024-03-23T14:30:48;8.18;;;2.83;;
56927;SDS011;60850;52.502;13.426;2024-03-23T14:33:15;13.50;;;2.75;;
56927;SDS011;60850;52.502;13.426;2024-03-23T14:35:43;8.77;;;2.13;;
56927;SDS011;60850;52.502;13.426;2024-03-23T14:38:17;11.45;;;3.10;;
56927;SDS011;60850;52.502;13.426;2024-03-23T14:40:45;7.47;;;2.13;;
56927;SDS011;60850;52.502;13.426;2024-03-23T14:43:11;9.23;;;3.00;;
56927;SDS011;60850;52.502;13.426;2024-03-23T14:45:45;9.27;;;2.22;;
56927;SDS011;60850;52.502;13.426;2024-03-23T14:48:29;6.80;;;2.30;;
56927;SDS011;60850;52.502;13.426;2024-03-23T14:50:58;8.93;;;1.70;;
56927;SDS011;60850;52.502;13.426;2024-03-23T14:53:24;4.40;;;1.88;;
56927;SDS011;60850;52.502;13.426;2024-03-23T14:55:54;7.28;;;1.98;;
56927;SDS011;60850;52.502;13.426;2024-03-23T14:58:20;8.48;;;2.22;;
56927;SDS011;60850;52.502;13.426;2024-03-23T15:00:48;8.57;;;2.33;;
56927;SDS011;60850;52.502;13.426;2024-03-23T15:03:14;8.25;;;2.92;;
56927;SDS011;60850;52.502;13.426;2024-03-23T15:05:41;8.27;;;2.20;;
56927;SDS011;60850;52.502;13.426;2024-03-23T15:08:09;5.18;;;2.30;;
56927;SDS011;60850;52.502;13.426;2024-03-23T15:10:36;6.57;;;1.85;;
56927;SDS011;60850;52.502;13.426;2024-03-23T15:13:02;3.33;;;1.55;;
56927;SDS011;60850;52.502;13.426;2024-03-23T15:15:30;6.18;;;2.00;;
56927;SDS011;60850;52.502;13.426;2024-03-23T15:17:56;5.20;;;2.55;;
56927;SDS011;60850;52.502;13.426;2024-03-23T15:20:23;8.68;;;3.30;;
56927;SDS011;60850;52.502;13.426;2024-03-23T15:22:49;6.60;;;2.55;;
56927;SDS011;60850;52.502;13.426;2024-03-23T15:25:18;9.40;;;3.08;;
56927;SDS011;60850;52.502;13.426;2024-03-23T15:27:44;8.30;;;2.75;;
56927;SDS011;60850;52.502;13.426;2024-03-23T15:30:12;8.68;;;2.78;;